Time;durP1;ratioP1;P1;durP2;ratioP2;P2;SDS_P1;SDS_P2;PMS_P1;PMS_P2;Temp;Humidity;BMP_temperature;BMP_pressure;BME280_temperature;BME280_humidity;BME280_pressure;Samples;Min_cycle;Max_cycle;Signal;HPM_P1;HPM_P2
2023/04/03 00:02:13;;;;;;;6.18;0.95;;;;;;;-148.88;85.00;78223.56;5036796;28;20085;-78
2023/04/03 00:04:39;;;;;;;1.42;0.75;;;;;;;-148.88;84.86;78219.50;5037034;28;20030;-78
2023/04/03 00:07:05;;;;;;;4.47;1.30;;;;;;;-148.88;84.68;78231.69;5036977;28;20087;-78
2023/04/03 00:09:30;;;;;;;4.43;0.82;;;;;;;-148.88;85.15;78231.69;5035990;28;20439;-78
2023/04/03 00:11:55;;;;;;;3.08;1.17;;;;;;;-148.88;85.35;78254.03;5036723;28;20043;-78
2023/04/03 00:14:20;;;;;;;2.15;0.90;;;;;;;-148.88;85.98;78243.88;5036750;28;20026;-78
2023/04/03 00:16:46;;;;;;;6.25;1.00;;;;;;;-148.88;85.61;78247.94;5035933;28;20040;-78
2023/04/03 00:19:12;;;;;;;2.70;1.58;;;;;;;-148.88;86.67;78256.06;5035093;28;20120;-79
2023/04/03 00:21:38;;;;;;;1.20;0.55;;;;;;;-148.88;85.74;78260.13;5036827;28;20105;-78
2023/04/03 00:24:03;;;;;;;2.45;0.82;;;;;;;-148.88;85.44;78256.06;5036592;28;20030;-78
2023/04/03 00:26:28;;;;;;;2.33;0.80;;;;;;;-148.88;86.44;78258.09;5035518;28;20055;-78
2023/04/03 00:28:54;;;;;;;4.50;0.80;;;;;;;-148.88;86.04;78252.00;5036384;28;20148;-78
2023/04/03 00:31:19;;;;;;;2.47;0.82;;;;;;;-148.88;87.21;78264.19;5036039;28;20104;-78
2023/04/03 00:33:44;;;;;;;3.15;0.85;;;;;;;-148.88;86.94;78266.22;5036351;28;20108;-78
2023/04/03 00:36:10;;;;;;;4.30;1.17;;;;;;;-148.88;87.50;78280.47;5036799;28;20080;-78
2023/04/03 00:38:36;;;;;;;4.25;0.95;;;;;;;-148.88;88.27;78304.84;5036134;28;20044;-78
2023/04/03 00:41:01;;;;;;;2.83;0.98;;;;;;;-148.88;87.67;78308.91;5036442;28;20045;-78
2023/04/03 00:43:27;;;;;;;5.88;1.13;;;;;;;-148.88;88.47;78323.16;5035959;28;20025;-78
2023/04/03 00:45:54;;;;;;;4.78;1.00;;;;;;;-148.88;88.89;78321.13;5036013;28;20046;-78
2023/04/03 00:48:41;;;;;;;1.80;0.85;;;;;;;-148.88;88.44;78308.91;5036052;28;20025;-78
2023/04/03 00:51:11;;;;;;;4.47;1.80;;;;;;;-148.88;88.65;78315.00;5037531;28;20025;-78
2023/04/03 00:53:44;;;;;;;2.58;0.80;;;;;;;-148.88;88.54;78329.25;5035826;28;20053;-78
2023/04/03 00:56:12;;;;;;;;;;;;;;;-148.88;89.03;78323.16;5036353;28;20166;-78
2023/04/03 00:58:44;;;;;;;7.00;0.80;;;;;;;-148.88;89.31;78325.19;5036060;28;19913;-78
2023/04/03 01:01:14;;;;;;;4.15;0.82;;;;;;;-148.88;89.68;78341.44;5035250;28;20080;-78
2023/04/03 01:03:39;;;;;;;3.83;0.80;;;;;;;-148.88;90.39;78339.41;5035638;28;20033;-78
2023/04/03 01:06:05;;;;;;;2.28;1.00;;;;;;;-148.88;89.80;78343.47;5035730;28;20395;-78
2023/04/03 01:08:31;;;;;;;5.88;1.33;;;;;;;-148.88;90.28;78349.56;5033639;28;20100;-78
2023/04/03 01:10:56;;;;;;;3.25;1.02;;;;;;;-148.88;91.13;78388.19;5035558;28;20029;-78
2023/04/03 01:13:30;;;;;;;4.43;1.10;;;;;;;-148.88;91.46;78373.97;5035514;28;20057;-78
2023/04/03 01:15:56;;;;;;;3.85;0.93;;;;;;;-148.88;91.70;78369.91;5033450;28;20025;-78
2023/04/03 01:18:25;;;;;;;4.85;1.33;;;;;;;-148.88;91.41;78378.03;5034440;28;20033;-78
2023/04/03 01:21:06;;;;;;;3.42;1.15;;;;;;;-148.88;91.83;78390.22;5035059;28;20029;-78
2023/04/03 01:23:46;;;;;;;2.65;0.90;;;;;;;-148.88;92.60;78394.28;5033452;28;20030;-78
2023/04/03 01:26:12;;;;;;;7.53;1.25;;;;;;;-148.88;92.52;78396.31;5033426;28;20033;-78
2023/04/03 01:28:37;;;;;;;2.78;0.98;;;;;;;-148.88;92.31;78414.59;5034414;28;20434;-78
2023/04/03 01:31:24;;;;;;;3.97;1.27;;;;;;;-148.88;92.93;78406.47;5034615;28;20472;-78
2023/04/03 01:33:50;;;;;;;4.40;1.17;;;;;;;-148.88;92.59;78402.41;5033681;28;20048;-78
2023/04/03 01:36:20;;;;;;;4.10;0.88;;;;;;;-148.88;92.82;78400.38;5033490;28;20132;-78
2023/04/03 01:38:46;;;;;;;2.22;0.80;;;;;;;-148.88;92.96;78400.38;5033388;28;20064;-78
2023/04/03 01:41:11;;;;;;;6.53;1.17;;;;;;;-148.88;91.78;78406.47;5035013;28;20384;-78
2023/04/03 01:43:36;;;;;;;3.17;1.02;;;;;;;-148.88;93.33;78426.81;5035501;28;20025;-78
2023/04/03 01:46:02;;;;;;;3.13;1.20;;;;;;;-148.88;93.12;78439.00;5037342;28;20021;-77
2023/04/03 01:48:27;;;;;;;6.25;1.15;;;;;;;-148.88;92.92;78439.00;5036230;28;20102;-78
2023/04/03 01:50:53;;;;;;;2.60;0.80;;;;;;;-148.88;93.19;78439.00;5036726;28;20032;-78
2023/04/03 01:53:19;;;;;;;5.15;1.40;;;;;;;-148.88;93.60;78441.03;5035369;28;20037;-78
2023/04/03 01:55:44;;;;;;;3.45;1.05;;;;;;;-148.88;92.79;78436.97;5037432;28;20384;-78
2023/04/03 01:58:09;;;;;;;2.42;0.85;;;;;;;-148.88;92.93;78430.88;5035955;28;20025;-78
2023/04/03 02:00:35;;;;;;;1.88;0.90;;;;;;;-148.88;93.09;78459.31;5035756;28;20032;-77
2023/04/03 02:03:01;;;;;;;3.70;0.70;;;;;;;-148.88;93.26;78451.19;5035849;28;20029;-78
2023/04/03 02:05:26;;;;;;;3.83;1.00;;;;;;;-148.88;93.46;78447.13;5000451;28;1021338;-77
2023/04/03 02:07:52;;;;;;;3.72;1.00;;;;;;;-148.88;93.19;78453.22;5036650;28;20104;-77
2023/04/03 02:10:17;;;;;;;3.08;1.13;;;;;;;-148.88;92.87;78441.03;5036405;28;20403;-78
2023/04/03 02:12:42;;;;;;;8.10;1.27;;;;;;;-148.88;92.88;78447.13;5036714;28;20021;-77
2023/04/03 02:15:08;;;;;;;3.65;1.20;;;;;;;-148.88;92.69;78445.09;5036499;28;20340;-78
2023/04/03 02:17:35;;;;;;;2.65;1.05;;;;;;;-148.88;93.23;78455.25;5036696;28;20025;-78
2023/04/03 02:20:00;;;;;;;4.30;1.05;;;;;;;-148.88;92.58;78471.53;5037266;28;20029;-78
2023/04/03 02:22:26;;;;;;;2.58;0.80;;;;;;;-148.88;92.94;78479.66;5038113;28;20044;-78
2023/04/03 02:24:51;;;;;;;4.00;1.02;;;;;;;-148.88;93.62;78471.53;5037477;28;20063;-78
2023/04/03 02:27:17;;;;;;;3.08;0.70;;;;;;;-148.88;93.82;78479.66;5035941;28;20079;-78
2023/04/03 02:29:42;;;;;;;4.78;0.95;;;;;;;-148.88;94.45;78502.00;5036137;28;20013;-78
2023/04/03 02:32:07;;;;;;;4.40;1.00;;;;;;;-148.88;95.93;78550.78;5035554;28;20064;-78
2023/04/03 02:34:32;;;;;;;5.45;1.15;;;;;;;-148.88;96.84;78563.00;5034927;28;20033;-77
2023/04/03 02:36:58;;;;;;;2.28;0.88;;;;;;;-148.88;97.80;78581.28;5036252;28;20398;-77
2023/04/03 02:39:23;;;;;;;3.72;0.80;;;;;;;-148.88;97.76;78560.97;5035800;28;20044;-78
2023/04/03 02:41:48;;;;;;;5.38;1.30;;;;;;;-148.88;98.48;78573.16;5036003;28;20052;-78
2023/04/03 02:44:14;;;;;;;3.28;0.90;;;;;;;-148.88;98.29;78585.34;5036118;28;20030;-77
2023/04/03 02:46:39;;;;;;;3.90;1.00;;;;;;;-148.88;98.96;78593.47;5034719;28;20116;-78
2023/04/03 02:49:05;;;;;;;8.35;1.08;;;;;;;-148.88;98.85;78597.53;5034803;28;20495;-78
2023/04/03 02:51:31;;;;;;;8.55;1.10;;;;;;;-148.88;98.77;78605.69;5035906;28;20040;-78
2023/04/03 02:53:56;;;;;;;3.97;1.75;;;;;;;-148.88;98.75;78605.69;5035380;28;20025;-79
2023/04/03 02:56:21;;;;;;;5.85;0.90;;;;;;;-148.88;98.52;78609.75;5038064;28;20033;-77
2023/04/03 02:58:47;;;;;;;2.85;0.88;;;;;;;-148.88;98.55;78609.75;5038588;28;20412;-78
2023/04/03 03:01:12;;;;;;;3.42;1.17;;;;;;;-148.88;98.22;78613.81;5040999;28;20029;-78
2023/04/03 03:03:38;;;;;;;4.18;1.13;;;;;;;-148.88;98.86;78613.81;5036866;28;20057;-78
2023/04/03 03:06:24;;;;;;;4.43;0.95;;;;;;;-148.88;99.51;78621.94;5066706;22;20048;-87
2023/04/03 03:08:55;;;;;;;3.72;0.90;;;;;;;-148.88;99.85;78613.81;5075281;28;20073;-86
2023/04/03 03:12:21;;;;;;;8.63;1.30;;;;;;;-148.88;99.58;78626.00;5075417;28;20059;-86
2023/04/03 03:14:30;;;;;;;3.25;1.02;;;;;;;-148.88;100.00;78634.13;5067725;28;20090;-87
2023/04/03 03:16:58;;;;;;;6.03;0.93;;;;;;;-148.88;99.80;78638.19;5075405;28;20031;-87
2023/04/03 03:19:29;;;;;;;2.90;0.82;;;;;;;-148.88;99.57;78621.94;5075508;28;20043;-86
2023/04/03 03:21:57;;;;;;;5.35;1.38;;;;;;;-148.88;98.80;78621.94;5075097;28;20222;-87
2023/04/03 03:24:22;;;;;;;5.32;1.20;;;;;;;-148.88;97.94;78595.50;5077536;28;20025;-86
2023/04/03 03:26:53;;;;;;;2.50;0.98;;;;;;;-148.88;98.12;78611.78;5082676;28;20115;-86
2023/04/03 03:29:22;;;;;;;3.08;0.88;;;;;;;-148.88;98.04;78613.81;5082841;28;20020;-87
2023/04/03 03:31:55;;;;;;;2.45;0.93;;;;;;;-148.88;98.24;78601.59;5077695;28;20029;-86
2023/04/03 03:34:28;;;;;;;4.78;0.90;;;;;;;-148.88;97.94;78599.56;5078410;28;20038;-86
2023/04/03 03:36:59;;;;;;;3.90;1.15;;;;;;;-148.88;98.08;78603.63;5078169;28;20028;-86
2023/04/03 03:39:35;;;;;;;2.72;0.80;;;;;;;-148.88;98.35;78621.94;5077006;28;20459;-86
2023/04/03 03:42:04;;;;;;;4.32;0.95;;;;;;;-148.88;98.67;78617.88;5075457;28;20128;-87
2023/04/03 03:44:32;;;;;;;4.15;0.90;;;;;;;-148.88;98.61;78613.81;5075507;28;20459;-86
2023/04/03 03:47:10;;;;;;;4.20;0.90;;;;;;;-148.88;98.70;78607.72;5077801;28;20028;-85
2023/04/03 03:49:39;;;;;;;4.68;1.02;;;;;;;-148.88;98.75;78607.72;5076012;28;20020;-87
2023/04/03 03:52:14;;;;;;;3.80;1.15;;;;;;;-148.88;98.29;78607.72;5074872;28;20024;-86
2023/04/03 03:54:45;;;;;;;2.97;0.73;;;;;;;-148.88;98.46;78601.59;5075957;28;20024;-86
2023/04/03 03:57:17;;;;;;;4.55;1.42;;;;;;;-148.88;99.08;78619.91;5075424;28;20020;-86
2023/04/03 03:59:55;;;;;;;;;;;;;;;;;;;;;
2023/04/03 04:02:30;;;;;;;3.42;1.08;;;;;;;-148.88;99.54;78638.19;5076415;28;20032;-86
2023/04/03 04:05:07;;;;;;;4.03;1.13;;;;;;;-148.88;99.64;78636.16;5075306;28;20020;-87
2023/04/03 04:07:33;;;;;;;4.95;1.40;;;;;;;-148.88;100.00;78642.25;5075847;28;20036;-86
2023/04/03 04:10:06;;;;;;;2.60;0.85;;;;;;;-148.88;100.00;78654.47;5076244;28;20528;-86
2023/04/03 04:12:58;;;;;;;7.72;1.05;;;;;;;-148.88;100.00;78660.56;5074576;28;20082;-87
2023/04/03 04:15:43;;;;;;;6.30;1.75;;;;;;;-148.88;100.00;78672.75;5076405;28;20045;-87
2023/04/03 04:18:16;;;;;;;2.75;0.80;;;;;;;-148.88;100.00;78670.72;5074949;28;20024;-85
2023/04/03 04:20:44;;;;;;;4.78;1.38;;;;;;;-148.88;100.00;78666.66;5075328;28;20051;-85
2023/04/03 04:23:18;;;;;;;3.42;0.90;;;;;;;-148.88;100.00;78680.88;5077667;28;20507;-85
2023/04/03 04:25:49;;;;;;;;;;;;;;;-148.88;100.00;78682.91;5077722;28;20081;-85
2023/04/03 04:28:18;;;;;;;3.17;1.13;;;;;;;-148.88;100.00;78680.88;5076039;28;19973;-85
2023/04/03 04:30:53;;;;;;;4.82;1.30;;;;;;;-148.88;100.00;78682.91;5076562;28;20032;-86
2023/04/03 04:33:27;;;;;;;7.38;1.27;;;;;;;-148.88;100.00;78682.91;5076842;28;20024;-86
2023/04/03 04:36:16;;;;;;;3.63;1.30;;;;;;;-148.88;100.00;78672.75;5076166;28;20021;-87
2023/04/03 04:39:15;;;;;;;;;;;;;;;;;;;;;
2023/04/03 04:42:16;;;;;;;;;;;;;;;;;;;;;
2023/04/03 04:44:48;;;;;;;3.55;1.08;;;;;;;-148.88;100.00;78682.91;5076138;28;20028;-86
2023/04/03 04:47:20;;;;;;;5.70;1.20;;;;;;;-148.88;100.00;78682.91;5075684;28;20029;-85
2023/04/03 04:49:51;;;;;;;4.85;1.40;;;;;;;-148.88;100.00;78709.34;5075511;28;20032;-87
2023/04/03 04:52:19;;;;;;;4.60;1.30;;;;;;;-148.88;100.00;78697.16;5073109;28;20028;-86
2023/04/03 04:54:52;;;;;;;4.05;0.90;;;;;;;-148.88;100.00;78703.25;5073554;28;20024;-86
2023/04/03 04:57:28;;;;;;;6.20;1.55;;;;;;;-148.88;100.00;78701.22;5073886;28;20111;-86
2023/04/03 05:00:09;;;;;;;;;;;;;;;;;;;;;
2023/04/03 05:02:45;;;;;;;3.50;1.30;;;;;;;-148.88;100.00;78717.47;5077344;28;20111;-86
2023/04/03 05:05:22;;;;;;;3.40;1.45;;;;;;;-148.88;100.00;78711.38;5074768;28;20111;-85
2023/04/03 05:07:47;;;;;;;5.68;1.95;;;;;;;-148.88;100.00;78713.41;5077743;28;20024;-85
2023/04/03 05:10:15;;;;;;;4.72;1.30;;;;;;;-148.88;100.00;78723.56;5076917;28;20021;-85
2023/04/03 05:12:53;;;;;;;6.05;1.63;;;;;;;-148.88;100.00;78715.44;5077265;28;20037;-86
2023/04/03 05:15:44;;;;;;;6.03;1.58;;;;;;;-148.88;100.00;78721.53;5072881;28;20033;-85
2023/04/03 05:18:16;;;;;;;6.43;1.58;;;;;;;-148.88;100.00;78727.63;5072060;28;20033;-87
2023/04/03 05:20:51;;;;;;;6.50;1.83;;;;;;;-148.88;100.00;78727.63;5071930;28;20048;-87
2023/04/03 05:26:34;;;;;;;14.35;1.25;;;;;;;-148.88;100.00;78731.69;5063080;28;20390;-87
2023/04/03 05:29:06;;;;;;;3.22;1.35;;;;;;;-148.88;100.00;78723.56;5073531;28;20023;-86
2023/04/03 05:31:38;;;;;;;3.92;1.20;;;;;;;-148.88;100.00;78739.84;5072380;28;20029;-87
2023/04/03 05:34:18;;;;;;;1.88;1.05;;;;;;;-148.88;100.00;78729.66;5073481;28;20024;-87
2023/04/03 05:36:44;;;;;;;2.45;1.00;;;;;;;-148.88;100.00;78723.56;5072478;28;20059;-87
2023/04/03 05:39:41;;;;;;;4.97;1.20;;;;;;;-148.88;100.00;78727.63;5072746;28;20197;-87
2023/04/03 05:42:11;;;;;;;3.95;1.20;;;;;;;-148.88;100.00;78727.63;5067951;28;20090;-87
2023/04/03 05:44:42;;;;;;;6.13;1.60;;;;;;;-148.88;100.00;78727.63;5072257;28;20045;-87
2023/04/03 05:47:15;;;;;;;6.28;1.17;;;;;;;-148.88;100.00;78707.31;5073766;28;20017;-86
2023/04/03 05:49:51;;;;;;;6.20;1.73;;;;;;;-148.88;100.00;78707.31;5073370;28;20386;-87
2023/04/03 05:53:10;;;;;;;;;;;;;;;;;;;;;
2023/04/03 05:55:25;;;;;;;5.85;2.08;;;;;;;-148.88;100.00;78695.13;5086768;22;20142;-79
2023/04/03 05:57:51;;;;;;;4.13;1.30;;;;;;;-148.88;100.00;78701.22;5097274;28;20028;-79
2023/04/03 06:00:16;;;;;;;3.13;0.93;;;;;;;-148.88;100.00;78691.03;5097028;28;20496;-79
2023/04/03 06:02:42;;;;;;;4.15;1.17;;;;;;;-148.88;100.00;78689.00;5097789;28;20028;-79
2023/04/03 06:05:09;;;;;;;5.35;1.90;;;;;;;-148.88;100.00;78691.03;5098187;28;20030;-79
2023/04/03 06:07:35;;;;;;;5.45;1.45;;;;;;;-148.88;100.00;78682.91;5097179;28;20092;-78
2023/04/03 06:10:01;;;;;;;4.70;1.42;;;;;;;-148.88;100.00;78676.81;5097454;28;20404;-79
2023/04/03 06:12:28;;;;;;;4.53;1.58;;;;;;;-148.88;100.00;78660.56;5096591;28;20024;-78
2023/04/03 06:14:53;;;;;;;4.00;1.70;;;;;;;-148.88;100.00;78662.59;5097580;28;20079;-78
2023/04/03 06:17:19;;;;;;;2.63;1.33;;;;;;;-148.88;99.41;78658.53;5098216;28;20408;-79
2023/04/03 06:19:45;;;;;;;6.43;1.52;;;;;;;-148.88;99.25;78642.25;5096350;28;20088;-78
2023/04/03 06:22:11;;;;;;;4.60;1.40;;;;;;;-148.88;99.21;78640.22;5096038;28;20048;-79
2023/04/03 06:24:44;;;;;;;4.70;1.30;;;;;;;-148.88;98.58;78628.03;5099864;28;20022;-79
2023/04/03 06:27:11;;;;;;;4.50;1.00;;;;;;;-148.88;99.67;78658.53;5094671;28;20413;-78
2023/04/03 06:29:36;;;;;;;5.07;1.42;;;;;;;-148.88;99.79;78648.34;5097972;28;20043;-78
2023/04/03 06:32:02;;;;;;;3.67;1.00;;;;;;;-148.88;99.41;78642.25;5098592;28;20077;-78
2023/04/03 06:34:27;;;;;;;2.50;1.13;;;;;;;-148.88;98.55;78646.31;5098779;28;20103;-78
2023/04/03 06:36:52;;;;;;;3.95;1.13;;;;;;;-148.88;97.91;78634.13;5096994;28;20477;-78
2023/04/03 06:39:23;;;;;;;6.70;1.02;;;;;;;-148.88;97.34;78634.13;5098354;28;20020;-78
2023/04/03 06:41:49;;;;;;;6.72;1.23;;;;;;;-148.88;96.50;78638.19;5096625;28;20036;-78
2023/04/03 06:44:15;;;;;;;7.40;2.17;;;;;;;-148.88;96.74;78634.13;5097164;28;20031;-78
2023/04/03 06:46:42;;;;;;;4.47;1.13;;;;;;;-148.88;97.35;78628.03;5097254;28;20023;-78
2023/04/03 06:49:08;;;;;;;6.00;1.15;;;;;;;-148.88;96.89;78628.03;5097263;28;20020;-78
2023/04/03 06:51:37;;;;;;;7.53;1.27;;;;;;;-148.88;97.09;78615.84;5097448;28;20491;-78
2023/04/03 06:54:04;;;;;;;7.50;1.20;;;;;;;-148.88;96.50;78605.69;5096561;28;20055;-78
2023/04/03 06:56:29;;;;;;;4.57;1.27;;;;;;;-148.88;96.30;78589.41;5097705;28;20153;-78
2023/04/03 06:58:57;;;;;;;1.60;0.80;;;;;;;-148.88;93.99;78589.41;5097086;28;20020;-78
2023/04/03 07:01:24;;;;;;;1.95;0.88;;;;;;;-148.88;94.53;78593.47;5097559;28;20465;-78
2023/04/03 07:03:50;;;;;;;5.10;1.10;;;;;;;-148.88;94.98;78593.47;5099502;28;20023;-79
2023/04/03 07:06:16;;;;;;;6.13;1.27;;;;;;;-148.88;94.71;78577.22;5098295;28;20598;-78
2023/04/03 07:08:42;;;;;;;4.22;1.00;;;;;;;-148.88;94.64;78569.09;5098257;28;20460;-78
2023/04/03 07:11:09;;;;;;;3.47;1.00;;;;;;;-148.88;93.22;78563.00;5095813;28;20457;-78
2023/04/03 07:13:34;;;;;;;3.88;1.05;;;;;;;-148.88;92.92;78548.75;5096365;28;20097;-78
2023/04/03 07:16:00;;;;;;;4.20;1.30;;;;;;;-148.88;92.62;78540.63;5097480;28;20020;-78
2023/04/03 07:18:26;;;;;;;6.25;1.25;;;;;;;-148.88;93.51;78524.38;5096220;28;20024;-78
2023/04/03 07:20:51;;;;;;;5.90;1.20;;;;;;;-148.88;92.19;78526.41;5098657;28;20032;-78
2023/04/03 07:23:17;;;;;;;5.10;1.20;;;;;;;-148.88;92.16;78520.31;5099351;28;20030;-78
2023/04/03 07:25:47;;;;;;;3.90;1.00;;;;;;;-148.88;88.27;78504.03;5098700;28;20039;-78
2023/04/03 07:28:14;;;;;;;3.78;1.13;;;;;;;-148.88;89.10;78495.91;5096626;28;20450;-78
2023/04/03 07:30:47;;;;;;;4.45;1.20;;;;;;;-148.88;89.41;78477.63;5094789;28;20016;-78
2023/04/03 07:33:14;;;;;;;4.35;1.33;;;;;;;-148.88;89.51;78457.28;5094638;28;20411;-78
2023/04/03 07:35:41;;;;;;;3.38;0.88;;;;;;;-148.88;87.04;78463.38;5095697;28;20028;-78
2023/04/03 07:38:07;;;;;;;3.65;1.15;;;;;;;-148.88;86.81;78455.25;5097135;28;20059;-78
2023/04/03 07:40:33;;;;;;;4.72;1.55;;;;;;;-148.88;83.85;78463.38;5098537;28;20016;-78
2023/04/03 07:42:59;;;;;;;4.18;1.75;;;;;;;-148.88;84.52;78426.81;5097153;28;20043;-78
2023/04/03 07:45:25;;;;;;;5.57;1.02;;;;;;;-148.88;82.56;78432.91;5097367;28;20389;-78
2023/04/03 07:47:50;;;;;;;3.65;0.88;;;;;;;-148.88;83.08;78418.69;5099170;28;20024;-78
2023/04/03 07:50:16;;;;;;;3.92;0.90;;;;;;;-148.88;82.60;78406.47;5097409;28;20048;-78
2023/04/03 07:52:41;;;;;;;5.47;1.30;;;;;;;-148.88;81.61;78404.44;5095979;28;20028;-78
2023/04/03 07:55:07;;;;;;;6.55;1.02;;;;;;;-148.88;81.39;78380.06;5097685;28;20036;-78
2023/04/03 07:57:33;;;;;;;2.67;0.90;;;;;;;-148.88;82.04;78369.91;5098644;28;20036;-78
2023/04/03 07:59:58;;;;;;;3.50;1.10;;;;;;;-148.88;80.04;78430.88;5097942;28;20045;-78
2023/04/03 08:02:23;;;;;;;2.78;0.95;;;;;;;-148.88;81.73;78428.84;5095940;28;20024;-78
2023/04/03 08:04:48;;;;;;;5.07;1.20;;;;;;;-148.88;81.26;78414.59;5096638;28;20389;-78
2023/04/03 08:07:14;;;;;;;4.13;1.20;;;;;;;-148.88;82.24;78406.47;5096591;28;20042;-78
2023/04/03 08:09:39;;;;;;;4.00;1.75;;;;;;;-148.88;81.82;78390.22;5096628;28;20481;-78
2023/04/03 08:12:04;;;;;;;3.70;0.88;;;;;;;-148.88;80.42;78382.09;5097065;28;20473;-78
2023/04/03 08:14:34;;;;;;;5.07;1.13;;;;;;;-148.88;80.62;78373.97;5096444;28;20024;-78
2023/04/03 08:17:00;;;;;;;5.35;0.82;;;;;;;-148.88;79.56;78361.75;5095890;28;20077;-78
2023/04/03 08:19:26;;;;;;;2.50;1.00;;;;;;;-148.88;79.15;78361.75;5096325;28;20019;-78
2023/04/03 08:21:51;;;;;;;4.57;1.00;;;;;;;-148.88;77.31;78365.81;5095034;28;20043;-78
2023/04/03 08:24:16;;;;;;;2.47;1.17;;;;;;;-148.88;76.59;78345.50;5096215;28;20028;-78
2023/04/03 08:26:42;;;;;;;4.47;0.88;;;;;;;-148.88;76.54;78353.63;5096683;28;20058;-78
2023/04/03 08:29:07;;;;;;;2.97;0.80;;;;;;;-148.88;77.10;78345.50;5096565;28;20024;-78
2023/04/03 08:31:33;;;;;;;2.25;0.73;;;;;;;-148.88;78.32;78329.25;5096504;28;20031;-78
2023/04/03 08:33:58;;;;;;;2.53;0.93;;;;;;;-148.88;79.26;78317.06;5096152;28;20043;-78
2023/04/03 08:36:28;;;;;;;4.32;1.00;;;;;;;-148.88;79.83;78296.72;5098142;28;20049;-78
2023/04/03 08:38:55;;;;;;;4.63;1.20;;;;;;;-148.88;76.39;78290.63;5094981;28;20024;-78
2023/04/03 08:41:33;;;;;;;4.28;0.88;;;;;;;-148.88;76.51;78302.81;5094540;28;20081;-78
2023/04/03 08:44:16;;;;;;;4.85;1.27;;;;;;;-148.88;73.50;78317.06;5095885;28;20107;-78
2023/04/03 08:47:06;;;;;;;4.80;1.87;;;;;;;-148.88;75.03;78270.31;5094418;28;20476;-78
2023/04/03 08:49:51;;;;;;;3.90;1.08;;;;;;;-148.88;75.35;78243.88;5096088;28;20107;-78
2023/04/03 08:52:51;;;;;;;5.32;1.17;;;;;;;-148.88;75.57;78243.88;5096766;28;20028;-78
2023/04/03 08:55:19;;;;;;;4.40;1.00;;;;;;;-148.88;74.73;78223.56;5079226;28;20540;-78
2023/04/03 08:57:46;;;;;;;2.28;1.08;;;;;;;-148.88;74.93;78203.22;5095351;28;20099;-78
2023/04/03 09:00:15;;;;;;;7.38;1.55;;;;;;;-148.88;73.10;78189.00;5094360;28;20028;-78
2023/04/03 09:02:52;;;;;;;3.80;1.10;;;;;;;-148.88;74.64;78138.19;5095927;28;20031;-78
2023/04/03 09:05:18;;;;;;;4.00;1.42;;;;;;;-148.88;71.15;78136.16;5094237;28;20055;-78
2023/04/03 09:07:50;;;;;;;3.45;0.73;;;;;;;-148.88;72.27;78113.81;5096181;28;20023;-78
2023/04/03 09:10:23;;;;;;;3.15;1.45;;;;;;;-148.88;69.04;78073.16;5095097;28;20114;-78
2023/04/03 09:12:57;;;;;;;3.25;0.70;;;;;;;-148.88;64.98;78052.84;5097275;28;20105;-77
2023/04/03 09:15:24;;;;;;;6.32;1.10;;;;;;;-148.88;61.79;78008.13;5096664;28;20030;-79
2023/04/03 09:18:12;;;;;;;2.35;0.77;;;;;;;-148.88;61.39;78032.50;5093895;28;20023;-78
2023/04/03 09:21:17;;;;;;;3.67;0.68;;;;;;;-148.88;61.56;78030.47;5095161;28;20031;-79
2023/04/03 09:23:42;;;;;;;5.07;1.10;;;;;;;-148.88;63.88;77995.94;5095588;28;20048;-78
2023/04/03 09:26:13;;;;;;;2.83;0.68;;;;;;;-148.88;58.05;78000.00;5094596;28;20051;-78
2023/04/03 09:28:41;;;;;;;4.25;1.23;;;;;;;-148.88;58.95;78006.09;5095967;28;20031;-78
2023/04/03 09:31:25;;;;;;;2.55;0.65;;;;;;;-148.88;59.80;77987.78;5093313;28;20066;-78
2023/04/03 09:33:55;;;;;;;1.73;0.70;;;;;;;-148.88;62.97;77951.22;5095497;28;20032;-79
2023/04/03 09:36:42;;;;;;;3.28;0.93;;;;;;;-148.88;60.20;77920.72;5096836;28;20020;-78
2023/04/03 09:39:14;;;;;;;3.35;0.88;;;;;;;-148.88;59.53;77904.47;5096128;28;20039;-78
2023/04/03 09:41:40;;;;;;;3.47;0.80;;;;;;;-148.88;59.98;77878.06;5095680;28;20024;-78
2023/04/03 09:44:21;;;;;;;3.42;1.00;;;;;;;-148.88;57.56;77888.22;5095512;28;20385;-78
2023/04/03 09:46:47;;;;;;;3.30;0.73;;;;;;;-148.88;60.01;77876.03;5096135;28;20080;-78
2023/04/03 09:49:13;;;;;;;4.57;1.10;;;;;;;-148.88;56.96;77841.47;5097032;28;20019;-79
2023/04/03 09:51:38;;;;;;;3.70;0.93;;;;;;;-148.88;55.99;77802.84;5094326;28;20110;-79
2023/04/03 09:54:26;;;;;;;3.40;0.80;;;;;;;-148.88;55.74;77758.16;5094235;28;20055;-78
2023/04/03 09:56:55;;;;;;;5.28;1.00;;;;;;;-148.88;56.93;77745.97;5095823;28;20028;-78
2023/04/03 09:59:21;;;;;;;2.20;0.98;;;;;;;-148.88;54.96;77788.63;5094517;28;20016;-79
2023/04/03 10:02:20;;;;;;;4.47;0.80;;;;;;;-148.88;53.81;77774.41;5097892;28;20043;-79
2023/04/03 10:04:46;;;;;;;2.70;0.70;;;;;;;-148.88;57.01;77695.16;5098309;28;20035;-78
2023/04/03 10:07:33;;;;;;;2.17;0.63;;;;;;;-148.88;50.33;77711.41;5098873;28;20024;-79
2023/04/03 10:10:26;;;;;;;3.33;0.85;;;;;;;-148.88;52.04;77666.69;5098803;28;20077;-78
2023/04/03 10:13:11;;;;;;;2.58;0.80;;;;;;;-148.88;51.22;77691.09;5099069;28;20031;-78
2023/04/03 10:15:46;;;;;;;3.72;0.77;;;;;;;-148.88;50.10;77701.25;5097603;28;20020;-78
2023/04/03 10:18:42;;;;;;;2.72;0.98;;;;;;;-148.88;51.27;77682.97;5099520;28;20047;-78
2023/04/03 10:21:47;;;;;;;4.88;1.50;;;;;;;-148.88;51.58;77617.94;5093443;28;20060;-78
2023/04/03 10:24:25;;;;;;;4.55;0.88;;;;;;;-148.88;52.26;77735.78;5098657;28;20173;-79
2023/04/03 10:26:58;;;;;;;3.97;0.70;;;;;;;-148.88;50.87;77743.94;5100361;28;20036;-77
2023/04/03 10:29:40;;;;;;;;;;;;;;;-148.88;53.24;77689.06;5097549;28;20024;-79
2023/04/03 10:32:44;;;;;;;4.15;0.70;;;;;;;-148.88;50.67;77780.50;5098673;28;19908;-78
2023/04/03 10:35:12;;;;;;;1.77;0.68;;;;;;;-148.88;50.58;77658.56;5098741;28;20040;-78
2023/04/03 10:37:55;;;;;;;3.08;0.60;;;;;;;-148.88;51.60;77615.91;5100139;28;20055;-79
2023/04/03 10:40:34;;;;;;;2.17;0.90;;;;;;;-148.88;52.39;77650.44;5098913;28;20130;-79
2023/04/03 10:43:25;;;;;;;5.72;1.58;;;;;;;-148.88;51.46;77687.03;5097792;28;20437;-79
2023/04/03 10:46:06;;;;;;;2.72;0.80;;;;;;;-148.88;51.88;77634.19;5096847;28;20023;-79
2023/04/03 10:49:05;;;;;;;4.75;1.20;;;;;;;-148.88;51.86;77583.38;5098259;28;20094;-79
2023/04/03 10:51:43;;;;;;;1.40;0.60;;;;;;;-148.88;48.25;77648.41;5098884;28;20024;-78
2023/04/03 10:54:32;;;;;;;1.55;0.68;;;;;;;-148.88;48.87;77784.56;5097583;28;20024;-79
2023/04/03 10:57:02;;;;;;;4.43;0.90;;;;;;;-148.88;51.54;77802.84;5099390;28;20095;-78
2023/04/03 10:59:50;;;;;;;4.30;1.38;;;;;;;-148.88;52.15;77855.69;5099044;28;20054;-78
2023/04/03 11:02:23;;;;;;;5.43;1.00;;;;;;;-148.88;53.23;77857.72;5099203;28;20425;-78
2023/04/03 11:04:53;;;;;;;2.20;0.85;;;;;;;-148.88;54.14;77878.06;5099197;28;20028;-78
2023/04/03 11:07:23;;;;;;;3.70;1.00;;;;;;;-148.88;54.89;77800.81;5097905;28;20047;-78
2023/04/03 11:09:52;;;;;;;4.43;1.00;;;;;;;-148.88;53.43;77733.75;5096967;28;20016;-78
2023/04/03 11:12:17;;;;;;;3.08;0.80;;;;;;;-148.88;49.91;77670.75;5098219;28;20080;-79
2023/04/03 11:14:43;;;;;;;2.30;0.70;;;;;;;-148.88;50.12;77632.16;5096776;28;20423;-78
2023/04/03 11:17:23;;;;;;;2.25;0.80;;;;;;;-148.88;48.58;77615.91;5095333;28;20544;-78
2023/04/03 11:20:00;;;;;;;3.55;0.80;;;;;;;-148.88;47.45;77546.81;5095212;28;20020;-78
2023/04/03 11:22:50;;;;;;;3.33;0.80;;;;;;;-148.88;48.47;77548.84;5094993;28;20031;-78
2023/04/03 11:25:25;;;;;;;3.38;0.98;;;;;;;-148.88;48.40;77585.41;5095294;28;20047;-78
2023/04/03 11:27:58;;;;;;;2.05;0.73;;;;;;;-148.88;47.31;77548.84;5095597;28;20360;-78
2023/04/03 11:30:48;;;;;;;2.75;0.60;;;;;;;-148.88;46.69;77691.09;5100297;28;20075;-78
2023/04/03 11:33:19;;;;;;;4.32;2.50;;;;;;;-148.88;51.21;77581.34;5099734;28;20023;-78
2023/04/03 11:35:49;;;;;;;3.83;1.33;;;;;;;-148.88;47.60;77522.41;5097276;28;20026;-78
2023/04/03 11:38:26;;;;;;;5.15;1.02;;;;;;;-148.88;47.59;77508.19;5099321;28;20032;-79
2023/04/03 11:40:54;;;;;;;6.97;1.60;;;;;;;-148.88;46.50;77467.56;5096381;28;20024;-79
2023/04/03 11:43:30;;;;;;;6.45;2.67;;;;;;;-148.88;45.30;77463.50;5097658;28;20034;-78
2023/04/03 11:45:59;;;;;;;4.90;2.17;;;;;;;-148.88;44.17;77471.63;5096809;28;20058;-78